createdAt,value
2017-09-11T03:29:42.311Z,12.65
2017-09-11T03:32:10.143Z,12.65
2017-09-11T03:34:37.892Z,12.69
2017-09-11T03:37:05.651Z,12.72
2017-09-11T03:39:33.393Z,12.62
2017-09-11T03:42:01.697Z,12.63
2017-09-11T03:44:29.523Z,12.63
2017-09-11T03:46:57.325Z,12.66
2017-09-11T03:49:25.098Z,12.63
2017-09-11T03:51:52.856Z,12.60
2017-09-11T03:54:20.597Z,12.57
2017-09-11T03:56:48.494Z,12.44
2017-09-11T03:59:16.190Z,12.39
2017-09-11T04:01:43.920Z,12.44
2017-09-11T04:04:11.690Z,12.46
2017-09-11T04:06:39.547Z,12.37
2017-09-11T04:09:07.297Z,12.43
2017-09-11T04:11:36.302Z,12.50
2017-09-11T04:14:04.145Z,12.52
2017-09-11T04:16:31.898Z,12.46
2017-09-11T04:18:59.606Z,12.42
2017-09-11T04:21:27.371Z,12.51
2017-09-11T04:23:55.192Z,12.52
2017-09-11T04:26:22.924Z,12.57
2017-09-11T04:28:51.147Z,12.56
2017-09-11T04:31:18.912Z,12.57
2017-09-11T04:33:47.551Z,12.58
2017-09-11T04:36:15.320Z,12.56
2017-09-11T04:38:43.122Z,12.63
2017-09-11T04:41:10.874Z,12.61
2017-09-11T04:43:38.667Z,12.60
2017-09-11T04:46:06.646Z,12.64
2017-09-11T04:48:34.851Z,12.50
2017-09-11T04:51:02.664Z,12.55
2017-09-11T04:53:30.461Z,12.63
2017-09-11T04:55:58.166Z,12.57
2017-09-11T04:58:25.934Z,12.59
2017-09-11T05:00:53.684Z,12.62
2017-09-11T05:03:21.428Z,12.60
2017-09-11T05:05:49.268Z,12.58
2017-09-11T05:08:17.004Z,12.69
2017-09-11T05:10:44.730Z,12.69
2017-09-11T05:13:12.475Z,12.77
2017-09-11T05:15:40.226Z,12.75
2017-09-11T05:18:08.085Z,12.78
2017-09-11T05:20:35.804Z,12.81
2017-09-11T05:23:03.618Z,12.81
2017-09-11T05:25:31.334Z,12.83
2017-09-11T05:27:59.162Z,12.82
2017-09-11T05:30:26.969Z,12.84
2017-09-11T05:32:54.758Z,12.81
2017-09-11T05:35:22.483Z,12.76
2017-09-11T05:37:50.347Z,12.80
2017-09-11T05:40:18.077Z,12.77
2017-09-11T05:42:45.901Z,12.71
2017-09-11T05:45:13.681Z,12.78
2017-09-11T05:47:41.417Z,12.77
2017-09-11T05:50:09.208Z,12.79
2017-09-11T05:52:37.045Z,12.77
2017-09-11T05:55:04.843Z,12.71
2017-09-11T05:57:32.606Z,12.76
2017-09-11T06:00:00.365Z,12.79
2017-09-11T06:02:28.260Z,12.75
2017-09-11T06:04:56.080Z,12.76
2017-09-11T06:07:23.840Z,12.77
2017-09-11T06:09:51.562Z,12.82
2017-09-11T06:12:19.342Z,12.85
2017-09-11T06:14:47.209Z,12.91
2017-09-11T06:17:14.994Z,12.97
2017-09-11T06:19:42.854Z,12.99
2017-09-11T06:22:10.634Z,13.05
2017-09-11T06:24:38.540Z,13.03
2017-09-11T06:27:06.318Z,13.06
2017-09-11T06:29:34.389Z,13.14
2017-09-11T06:32:02.239Z,13.18
2017-09-11T06:34:30.052Z,13.27
2017-09-11T06:36:57.853Z,13.32
2017-09-11T06:39:25.686Z,13.35
2017-09-11T06:41:53.528Z,13.42
2017-09-11T06:44:21.349Z,13.49
2017-09-11T06:46:49.044Z,13.54
2017-09-11T06:49:16.808Z,13.46
2017-09-11T06:51:44.615Z,13.42
2017-09-11T06:54:12.335Z,13.53
2017-09-11T06:56:40.135Z,13.61
2017-09-11T06:59:07.854Z,13.63
2017-09-11T07:01:35.716Z,13.64
2017-09-11T07:04:03.503Z,13.73
2017-09-11T07:06:31.469Z,13.65
2017-09-11T07:08:59.334Z,13.53
2017-09-11T07:11:27.172Z,13.49
2017-09-11T07:13:55.010Z,13.62
2017-09-11T07:16:22.855Z,13.70
2017-09-11T07:18:51.030Z,13.63
2017-09-11T07:21:18.930Z,13.62
2017-09-11T07:23:46.993Z,13.65
2017-09-11T07:26:14.777Z,13.61
2017-09-11T07:28:42.653Z,13.76
2017-09-11T07:31:10.361Z,13.85
2017-09-11T07:33:38.187Z,13.97
2017-09-11T07:36:05.990Z,13.85
2017-09-11T07:38:33.828Z,13.90
2017-09-11T07:41:01.627Z,14.00
2017-09-11T07:43:29.374Z,14.03
2017-09-11T07:45:57.105Z,14.06
2017-09-11T07:48:24.865Z,14.09
2017-09-11T07:50:53.190Z,14.23
2017-09-11T07:53:20.899Z,14.18
2017-09-11T07:55:48.686Z,14.10
2017-09-11T07:58:16.397Z,14.17
2017-09-11T08:00:44.111Z,14.36
2017-09-11T08:03:11.841Z,14.19
2017-09-11T08:05:39.557Z,14.16
2017-09-11T08:08:07.347Z,14.21
2017-09-11T08:10:36.375Z,14.26
2017-09-11T08:13:04.113Z,14.10
2017-09-11T08:15:31.834Z,14.01
2017-09-11T08:17:59.571Z,14.25
2017-09-11T08:20:27.334Z,14.35
2017-09-11T08:22:55.152Z,14.46
2017-09-11T08:25:23.894Z,14.43
2017-09-11T08:27:51.895Z,14.47
2017-09-11T08:30:19.759Z,14.44
2017-09-11T08:32:47.518Z,14.44
2017-09-11T08:35:15.305Z,14.79
2017-09-11T08:37:49.145Z,14.60
2017-09-11T08:40:16.945Z,14.51
2017-09-11T08:42:44.722Z,14.50
2017-09-11T08:45:12.437Z,14.50
2017-09-11T08:47:40.297Z,14.53
2017-09-11T08:50:08.186Z,14.65
2017-09-11T08:52:35.907Z,14.55
2017-09-11T08:55:03.819Z,14.59
2017-09-11T08:57:31.532Z,14.58
2017-09-11T08:59:59.593Z,14.63
2017-09-11T09:02:27.427Z,14.74
2017-09-11T09:04:55.831Z,14.78
2017-09-11T09:07:24.315Z,14.81
2017-09-11T09:09:52.158Z,14.90
2017-09-11T09:12:21.136Z,14.85
2017-09-11T09:14:49.054Z,14.70
2017-09-11T09:17:17.549Z,14.97
2017-09-11T09:19:45.365Z,14.75
2017-09-11T09:22:13.128Z,14.72
2017-09-11T09:24:41.130Z,14.56
2017-09-11T09:27:08.912Z,14.61
2017-09-11T09:29:36.680Z,14.63
2017-09-11T09:32:04.399Z,14.73
2017-09-11T09:34:32.256Z,14.78
2017-09-11T09:37:00.030Z,14.78
2017-09-11T09:39:27.863Z,14.91
2017-09-11T09:41:55.640Z,14.91
2017-09-11T09:44:23.398Z,14.89
2017-09-11T09:46:51.203Z,14.95
2017-09-11T09:49:19.126Z,15.09
2017-09-11T09:51:46.954Z,15.03
2017-09-11T09:54:14.753Z,14.98
2017-09-11T09:56:43.098Z,15.01
2017-09-11T09:59:11.017Z,14.88
2017-09-11T10:01:39.241Z,14.73
2017-09-11T10:04:08.609Z,14.73
2017-09-11T10:06:36.516Z,14.72
2017-09-11T10:09:04.385Z,14.64
2017-09-11T10:11:32.491Z,14.79
2017-09-11T10:14:00.740Z,14.78
2017-09-11T10:16:28.471Z,14.64
2017-09-11T10:18:56.294Z,14.71
2017-09-11T10:21:24.201Z,14.84
2017-09-11T10:23:51.937Z,14.83
2017-09-11T10:26:19.752Z,14.82
2017-09-11T10:28:47.504Z,14.95
2017-09-11T10:31:15.316Z,14.96
2017-09-11T10:33:43.139Z,14.88
2017-09-11T10:36:11.143Z,14.93
2017-09-11T10:38:38.952Z,14.79
2017-09-11T10:41:06.710Z,14.68
2017-09-11T10:43:34.892Z,14.73
2017-09-11T10:46:02.767Z,14.80
2017-09-11T10:48:30.617Z,14.85
2017-09-11T10:50:58.324Z,14.69
2017-09-11T10:53:26.149Z,14.67
2017-09-11T10:55:53.932Z,14.67
2017-09-11T10:58:21.637Z,14.77
2017-09-11T11:00:49.480Z,14.75
2017-09-11T11:03:17.232Z,14.76
2017-09-11T11:05:45.061Z,14.68
2017-09-11T11:08:14.488Z,14.62
2017-09-11T11:10:42.545Z,14.67
2017-09-11T11:13:10.343Z,14.79
2017-09-11T11:15:38.197Z,14.68
2017-09-11T11:18:05.928Z,14.81
2017-09-11T11:20:33.717Z,14.88
2017-09-11T11:23:01.509Z,14.86
2017-09-11T11:25:29.281Z,15.07
2017-09-11T11:27:57.081Z,15.16
2017-09-11T11:30:24.829Z,15.27
2017-09-11T11:32:52.657Z,15.10
2017-09-11T11:35:20.457Z,15.16
2017-09-11T11:37:48.217Z,14.99
2017-09-11T11:40:15.998Z,14.97
2017-09-11T11:42:43.862Z,15.14
2017-09-11T11:45:11.653Z,15.12
2017-09-11T11:47:39.424Z,15.19
2017-09-11T11:50:07.197Z,15.06
2017-09-11T11:52:35.536Z,15.09
2017-09-11T11:55:03.316Z,15.03
2017-09-11T11:57:31.377Z,15.01
2017-09-11T11:59:59.127Z,15.10
2017-09-11T12:02:27.215Z,15.10
2017-09-11T12:04:54.919Z,15.19
2017-09-11T12:07:22.724Z,15.11
2017-09-11T12:09:50.467Z,14.94
2017-09-11T12:12:18.296Z,14.97
2017-09-11T12:14:46.022Z,14.96
2017-09-11T12:17:13.796Z,15.04
2017-09-11T12:19:41.560Z,15.23
2017-09-11T12:22:09.274Z,15.15
2017-09-11T12:24:37.180Z,15.18
2017-09-11T12:27:04.902Z,15.30
2017-09-11T12:29:32.675Z,15.25
2017-09-11T12:32:00.481Z,15.06
2017-09-11T12:34:28.258Z,15.04
2017-09-11T12:36:56.092Z,15.03
2017-09-11T12:39:23.852Z,15.16
2017-09-11T12:41:51.755Z,15.08
2017-09-11T12:44:19.861Z,15.08
2017-09-11T12:46:47.613Z,15.12
2017-09-11T12:49:15.457Z,15.11
2017-09-11T12:51:43.175Z,15.03
2017-09-11T12:54:11.018Z,14.97
2017-09-11T12:56:38.771Z,14.92
2017-09-11T12:59:06.593Z,14.98
2017-09-11T13:01:34.376Z,14.80
2017-09-11T13:04:02.153Z,14.74
2017-09-11T13:06:30.246Z,14.78
2017-09-11T13:08:58.028Z,14.69
2017-09-11T13:11:25.824Z,14.78
2017-09-11T13:13:53.539Z,14.78
2017-09-11T13:16:21.353Z,14.87
2017-09-11T13:18:49.102Z,14.81
2017-09-11T13:21:16.927Z,14.77
2017-09-11T13:23:44.657Z,14.88
2017-09-11T13:26:12.540Z,14.99
2017-09-11T13:28:40.322Z,14.96
2017-09-11T13:31:08.086Z,14.96
2017-09-11T13:33:35.892Z,15.03
2017-09-11T13:36:03.659Z,15.06
2017-09-11T13:38:31.387Z,15.04
2017-09-11T13:40:59.239Z,15.03
2017-09-11T13:43:27.062Z,15.02
2017-09-11T13:45:54.867Z,15.10
2017-09-11T13:48:22.610Z,15.14
2017-09-11T13:50:50.866Z,15.20
2017-09-11T13:53:18.602Z,15.19
2017-09-11T13:55:47.004Z,15.24
2017-09-11T13:58:14.910Z,15.23
2017-09-11T14:00:42.672Z,15.33
2017-09-11T14:03:10.412Z,15.39
2017-09-11T14:05:39.518Z,15.34
2017-09-11T14:08:07.354Z,15.36
2017-09-11T14:10:35.256Z,15.37
2017-09-11T14:13:04.119Z,15.25
2017-09-11T14:15:33.011Z,15.21
2017-09-11T14:18:00.746Z,15.23
2017-09-11T14:20:28.505Z,15.16
2017-09-11T14:22:56.395Z,15.19
2017-09-11T14:25:25.088Z,15.20
2017-09-11T14:27:52.924Z,15.19
2017-09-11T14:30:20.777Z,15.15
2017-09-11T14:32:48.578Z,15.14
2017-09-11T14:35:16.340Z,15.07
2017-09-11T14:37:44.168Z,15.00
2017-09-11T14:40:12.232Z,14.93
2017-09-11T14:42:40.002Z,14.93
2017-09-11T14:45:07.864Z,15.02
2017-09-11T14:47:35.671Z,14.89
2017-09-11T14:50:03.478Z,14.93
2017-09-11T14:52:31.310Z,14.91
2017-09-11T14:54:59.071Z,14.97
2017-09-11T14:57:28.057Z,15.00
2017-09-11T14:59:55.795Z,14.95
2017-09-11T15:02:23.682Z,14.90
2017-09-11T15:04:51.519Z,14.92
2017-09-11T15:07:19.260Z,14.91
2017-09-11T15:09:47.045Z,14.83
2017-09-11T15:12:15.456Z,14.81
2017-09-11T15:14:43.292Z,14.82
2017-09-11T15:17:11.068Z,14.83
2017-09-11T15:19:39.718Z,14.84
2017-09-11T15:22:08.007Z,14.78
2017-09-11T15:24:36.144Z,14.86
2017-09-11T15:27:03.985Z,14.74
2017-09-11T15:29:31.835Z,14.69
2017-09-11T15:31:59.667Z,14.69
2017-09-11T15:34:27.606Z,14.69
2017-09-11T15:36:55.468Z,14.65
2017-09-11T15:39:23.344Z,14.82
2017-09-11T15:41:51.926Z,14.68
2017-09-11T15:44:19.665Z,14.62
2017-09-11T15:46:48.188Z,14.44
2017-09-11T15:49:15.987Z,14.32
2017-09-11T15:51:43.769Z,14.33
2017-09-11T15:54:13.372Z,14.13
2017-09-11T15:56:41.420Z,14.30
2017-09-11T15:59:09.261Z,14.08
2017-09-11T16:01:37.060Z,13.89
2017-09-11T16:04:04.840Z,13.93
2017-09-11T16:06:32.603Z,13.69
2017-09-11T16:09:00.339Z,13.57
2017-09-11T16:11:28.139Z,13.44
2017-09-11T16:13:56.289Z,13.57
2017-09-11T16:16:24.053Z,13.64
2017-09-11T16:18:51.884Z,13.57
2017-09-11T16:21:19.781Z,13.48
2017-09-11T16:23:47.640Z,13.69
2017-09-11T16:26:15.514Z,13.51
2017-09-11T16:28:43.687Z,13.51
2017-09-11T16:31:11.764Z,13.43
2017-09-11T16:33:39.989Z,13.43
2017-09-11T16:36:07.777Z,13.50
2017-09-11T16:38:35.653Z,13.46
2017-09-11T16:41:03.516Z,13.33
2017-09-11T16:43:31.271Z,13.40
2017-09-11T16:45:59.036Z,13.35
2017-09-11T16:48:26.865Z,13.42
2017-09-11T16:50:54.627Z,13.39
2017-09-11T16:53:22.417Z,13.47
2017-09-11T16:55:50.270Z,13.40
2017-09-11T16:58:17.977Z,13.27
2017-09-11T17:00:45.796Z,13.35
2017-09-11T17:03:13.919Z,13.46
2017-09-11T17:05:41.902Z,13.46
2017-09-11T17:08:09.649Z,13.36
2017-09-11T17:10:37.793Z,13.37
2017-09-11T17:13:05.576Z,13.34
2017-09-11T17:15:33.308Z,13.34
2017-09-11T17:18:01.332Z,13.37
2017-09-11T17:20:29.267Z,13.34
2017-09-11T17:22:57.153Z,13.26
2017-09-11T17:25:25.287Z,13.25
2017-09-11T17:27:53.090Z,13.19
2017-09-11T17:30:20.877Z,13.27
2017-09-11T17:32:48.645Z,13.20
2017-09-11T17:35:16.421Z,13.16
2017-09-11T17:37:44.244Z,13.10
2017-09-11T17:40:12.071Z,13.02
2017-09-11T17:42:39.926Z,13.10
2017-09-11T17:45:08.908Z,13.13
2017-09-11T17:47:37.771Z,13.12
2017-09-11T17:50:05.563Z,12.94
2017-09-11T17:52:33.408Z,13.01
2017-09-11T17:55:01.253Z,13.03
2017-09-11T17:57:29.036Z,13.00
2017-09-11T17:59:57.468Z,12.97
2017-09-11T18:02:25.292Z,12.94
2017-09-11T18:04:53.202Z,12.91
2017-09-11T18:07:21.019Z,12.96
2017-09-11T18:09:50.120Z,12.97
2017-09-11T18:12:18.291Z,13.06
2017-09-11T18:14:46.221Z,13.00
2017-09-11T18:17:14.043Z,12.92
2017-09-11T18:19:41.860Z,12.96
2017-09-11T18:22:11.189Z,12.97
2017-09-11T18:24:39.102Z,13.01
2017-09-11T18:27:07.075Z,13.00
2017-09-11T18:29:34.844Z,13.01
2017-09-11T18:32:03.744Z,12.95
2017-09-11T18:34:31.908Z,12.90
2017-09-11T18:37:00.045Z,12.92
2017-09-11T18:39:31.548Z,12.96
2017-09-11T18:41:59.767Z,12.95
2017-09-11T18:44:27.749Z,12.95
2017-09-11T18:46:55.601Z,12.96
2017-09-11T18:49:24.256Z,12.92
2017-09-11T18:51:52.125Z,12.90
2017-09-11T18:54:19.988Z,12.94
2017-09-11T18:56:47.791Z,12.86
2017-09-11T18:59:15.561Z,12.87
2017-09-11T19:01:43.460Z,12.87
2017-09-11T19:04:11.311Z,12.80
2017-09-11T19:06:39.204Z,12.75
2017-09-11T19:09:07.113Z,12.77
2017-09-11T19:11:35.546Z,12.83
2017-09-11T19:59:02.196Z,12.72
2017-09-11T20:01:30.425Z,12.62
2017-09-11T20:03:58.224Z,12.63
2017-09-11T20:06:26.064Z,12.71
2017-09-11T20:08:53.828Z,12.70
2017-09-11T20:11:21.675Z,12.56
2017-09-11T20:13:49.504Z,12.68
2017-09-11T20:16:17.370Z,12.65
2017-09-11T20:18:45.277Z,12.64
2017-09-11T20:21:13.130Z,12.70
2017-09-11T20:23:40.890Z,12.69
2017-09-11T20:26:08.666Z,12.72
2017-09-11T20:28:36.462Z,12.71
2017-09-11T20:31:04.241Z,12.69
2017-09-11T20:33:32.049Z,12.69
2017-09-11T20:35:59.817Z,12.73
2017-09-11T20:38:27.577Z,12.71
2017-09-11T20:40:55.459Z,12.73
2017-09-11T20:43:23.294Z,12.73
2017-09-11T20:45:51.192Z,12.70
2017-09-11T20:48:19.000Z,12.69
2017-09-11T20:50:47.209Z,12.76
2017-09-11T20:53:14.972Z,12.74
2017-09-11T20:55:42.738Z,12.72
2017-09-11T20:58:10.440Z,12.71
2017-09-11T21:00:38.194Z,12.74
2017-09-11T21:03:05.962Z,12.72
2017-09-11T21:05:33.932Z,12.72
2017-09-11T21:08:01.662Z,12.80
2017-09-11T21:10:29.436Z,12.80
2017-09-11T21:12:57.145Z,12.77
2017-09-11T21:15:24.876Z,12.75
2017-09-11T21:17:52.602Z,12.74
2017-09-11T21:20:20.473Z,12.76
2017-09-11T21:22:48.165Z,12.73
2017-09-11T21:25:15.912Z,12.59
2017-09-11T21:27:44.620Z,12.63
2017-09-11T21:30:12.332Z,12.65
2017-09-11T21:32:40.114Z,12.69
2017-09-11T21:35:07.858Z,12.70
2017-09-11T21:37:35.672Z,12.69
2017-09-11T21:40:03.451Z,12.69
2017-09-11T21:42:31.140Z,12.72
2017-09-11T21:44:58.918Z,12.62
2017-09-11T21:47:26.667Z,12.65
2017-09-11T21:49:54.391Z,12.65
2017-09-11T21:52:22.168Z,12.68
2017-09-11T21:54:49.951Z,12.63
2017-09-11T21:57:18.281Z,12.63
2017-09-11T21:59:46.207Z,12.64
2017-09-11T22:02:13.926Z,12.62
2017-09-11T22:04:41.722Z,12.56
2017-09-11T22:07:09.789Z,12.54
2017-09-11T22:09:39.153Z,12.54
2017-09-11T22:12:06.933Z,12.53
2017-09-11T22:14:34.658Z,12.62
2017-09-11T22:17:02.346Z,12.53
2017-09-11T22:19:30.070Z,12.57
2017-09-11T22:21:57.780Z,12.61
2017-09-11T22:24:25.465Z,12.63
2017-09-11T22:26:53.203Z,12.63
2017-09-11T22:29:20.913Z,12.59
2017-09-11T22:31:48.674Z,12.56
2017-09-11T22:34:16.385Z,12.53
2017-09-11T22:36:44.096Z,12.52
2017-09-11T22:39:11.897Z,12.54
2017-09-11T22:41:39.665Z,12.53
2017-09-11T22:44:08.104Z,12.52
2017-09-11T22:46:35.856Z,12.52
2017-09-11T22:49:03.684Z,12.47
2017-09-11T22:51:31.430Z,12.46
2017-09-11T22:53:59.215Z,12.51
2017-09-11T22:56:26.908Z,12.48
2017-09-11T22:58:54.670Z,12.45
2017-09-11T23:01:22.470Z,12.49
2017-09-11T23:03:50.190Z,12.45
2017-09-11T23:06:17.983Z,12.50
2017-09-11T23:08:45.721Z,12.50
2017-09-11T23:11:13.702Z,12.40
2017-09-11T23:13:41.502Z,12.41
2017-09-11T23:16:09.284Z,12.42
2017-09-11T23:18:37.149Z,12.40
2017-09-11T23:21:05.266Z,12.26
2017-09-11T23:23:33.465Z,12.25
2017-09-11T23:26:01.298Z,12.30
2017-09-11T23:28:29.044Z,12.15
2017-09-11T23:30:56.834Z,12.22
2017-09-11T23:33:24.623Z,12.23
2017-09-11T23:35:52.333Z,12.28
2017-09-11T23:38:20.041Z,12.24
2017-09-11T23:40:47.900Z,12.24
2017-09-11T23:43:15.609Z,12.28
2017-09-11T23:45:43.325Z,12.28
2017-09-11T23:48:11.048Z,12.27
2017-09-11T23:50:38.747Z,12.25
2017-09-11T23:53:07.304Z,12.21
2017-09-11T23:55:35.077Z,12.17
2017-09-11T23:58:02.830Z,12.15
